createdAt,value
2022-08-31T00:00:33.604Z,101420.63
2022-08-31T00:03:19.008Z,101431.59
2022-08-31T00:05:45.994Z,101431.50
2022-08-31T00:08:12.705Z,101428.53
2022-08-31T00:10:43.273Z,101429.16
2022-08-31T00:13:12.234Z,101434.06
2022-08-31T00:15:39.557Z,101420.69
2022-08-31T00:18:06.269Z,101419.44
2022-08-31T00:20:34.812Z,101430.41
2022-08-31T00:23:04.007Z,101424.28
2022-08-31T00:25:31.608Z,101431.63
2022-08-31T00:27:58.550Z,101431.50
2022-08-31T00:30:25.774Z,101425.19
2022-08-31T00:32:52.411Z,101429.09
2022-08-31T00:35:19.686Z,101431.66
2022-08-31T00:37:46.242Z,101428.03
2022-08-31T00:40:13.374Z,101432.53
2022-08-31T00:42:40.124Z,101432.31
2022-08-31T00:45:08.045Z,101430.41
2022-08-31T00:47:34.699Z,101438.47
2022-08-31T00:50:03.980Z,101435.09
2022-08-31T00:52:39.884Z,101432.41
2022-08-31T00:55:14.357Z,101430.06
2022-08-31T00:57:45.157Z,101439.06
2022-08-31T01:00:20.074Z,101440.06
2022-08-31T01:02:47.134Z,101436.09
2022-08-31T01:05:15.846Z,101443.88
2022-08-31T01:07:47.560Z,101434.09
2022-08-31T01:10:15.835Z,101446.81
2022-08-31T01:12:45.833Z,101437.28
2022-08-31T01:15:14.486Z,101441.44
2022-08-31T01:17:43.455Z,101440.88
2022-08-31T01:20:29.064Z,101445.47
2022-08-31T01:23:26.301Z,101437.72
2022-08-31T01:25:55.389Z,101442.09
2022-08-31T01:28:22.296Z,101431.28
2022-08-31T01:31:05.249Z,101432.28
2022-08-31T01:33:35.386Z,101441.69
2022-08-31T01:36:03.653Z,101438.94
2022-08-31T01:38:32.054Z,101441.06
2022-08-31T01:41:04.253Z,101448.75
2022-08-31T01:43:35.874Z,101445.13
2022-08-31T01:46:04.830Z,101443.44
2022-08-31T01:48:41.545Z,101438.69
2022-08-31T01:51:12.290Z,101439.41
2022-08-31T01:53:42.109Z,101441.56
2022-08-31T01:56:14.452Z,101442.06
2022-08-31T01:58:41.258Z,101433.00
2022-08-31T02:01:34.410Z,101436.72
2022-08-31T02:04:04.693Z,101436.13
2022-08-31T02:06:32.566Z,101441.34
2022-08-31T02:08:59.599Z,101441.22
2022-08-31T02:11:26.243Z,101447.16
2022-08-31T02:13:52.827Z,101454.25
2022-08-31T02:16:19.536Z,101446.31
2022-08-31T02:18:46.118Z,101447.19
2022-08-31T02:21:13.916Z,101449.72
2022-08-31T02:23:41.931Z,101443.63
2022-08-31T02:26:09.346Z,101443.03
2022-08-31T02:28:36.747Z,101441.38
2022-08-31T02:31:04.002Z,101440.94
2022-08-31T02:33:35.902Z,101440.78
2022-08-31T02:36:03.450Z,101443.81
2022-08-31T02:38:32.346Z,101441.44
2022-08-31T02:40:59.162Z,101430.50
2022-08-31T02:43:26.170Z,101435.47
2022-08-31T02:45:54.214Z,101444.75
2022-08-31T02:48:26.755Z,101434.09
2022-08-31T02:50:53.909Z,101427.50
2022-08-31T02:53:23.183Z,101438.34
2022-08-31T02:55:50.553Z,101428.16
2022-08-31T02:58:23.335Z,101437.47
2022-08-31T03:00:51.430Z,101433.91
2022-08-31T03:03:18.483Z,101437.97
2022-08-31T03:05:45.220Z,101434.63
2022-08-31T03:08:13.010Z,101425.28
2022-08-31T03:10:40.053Z,101434.34
2022-08-31T03:13:06.765Z,101440.94
2022-08-31T03:15:34.351Z,101437.84
2022-08-31T03:18:07.089Z,101440.00
2022-08-31T03:20:34.582Z,101436.88
2022-08-31T03:23:01.933Z,101435.00
2022-08-31T03:25:30.733Z,101436.59
2022-08-31T03:27:57.787Z,101436.16
2022-08-31T03:30:25.933Z,101436.81
2022-08-31T03:33:02.966Z,101436.09
2022-08-31T03:35:32.210Z,101425.84
2022-08-31T03:37:58.847Z,101440.06
2022-08-31T03:40:25.575Z,101423.59
2022-08-31T03:42:52.296Z,101429.41
2022-08-31T03:45:20.071Z,101430.84
2022-08-31T03:47:46.882Z,101425.50
2022-08-31T03:50:16.354Z,101420.66
2022-08-31T03:53:06.299Z,101417.88
2022-08-31T03:55:34.611Z,101424.94
2022-08-31T03:58:01.700Z,101429.59
2022-08-31T04:00:30.105Z,101424.75
2022-08-31T04:03:03.146Z,101425.09
2022-08-31T04:05:32.310Z,101427.66
2022-08-31T04:08:01.970Z,101433.72
2022-08-31T04:10:52.866Z,101436.56
2022-08-31T04:13:51.465Z,101441.97
2022-08-31T04:16:40.353Z,101439.63
2022-08-31T04:19:26.966Z,101440.50
2022-08-31T04:21:58.750Z,101446.94
2022-08-31T04:24:26.117Z,101446.94
2022-08-31T04:26:53.047Z,101455.81
2022-08-31T04:29:20.052Z,101454.75
2022-08-31T04:31:47.453Z,101451.31
2022-08-31T04:34:14.794Z,101453.09
2022-08-31T04:36:41.818Z,101459.88
2022-08-31T04:39:08.612Z,101456.78
2022-08-31T04:41:38.070Z,101462.28
2022-08-31T04:44:08.129Z,101457.97
2022-08-31T04:46:37.542Z,101465.56
2022-08-31T04:49:07.928Z,101475.50
2022-08-31T04:51:36.231Z,101470.25
2022-08-31T04:54:05.441Z,101476.31
2022-08-31T04:56:34.039Z,101473.34
2022-08-31T04:59:06.845Z,101468.63
2022-08-31T05:01:43.369Z,101477.56
2022-08-31T05:04:29.629Z,101485.94
2022-08-31T05:06:56.528Z,101476.06
2022-08-31T05:09:24.374Z,101480.50
2022-08-31T05:11:54.384Z,101489.94
2022-08-31T05:14:22.567Z,101491.66
2022-08-31T05:16:56.015Z,101497.03
2022-08-31T05:19:23.070Z,101508.97
2022-08-31T05:21:49.706Z,101510.13
2022-08-31T05:24:22.418Z,101522.53
2022-08-31T05:26:52.370Z,101530.38
2022-08-31T05:29:23.136Z,101531.88
2022-08-31T05:31:56.850Z,101530.94
2022-08-31T05:34:24.118Z,101526.28
2022-08-31T05:36:53.566Z,101531.63
2022-08-31T05:39:21.453Z,101538.47
2022-08-31T05:41:48.394Z,101528.88
2022-08-31T05:44:17.551Z,101528.22
2022-08-31T05:46:44.705Z,101529.66
2022-08-31T05:49:21.947Z,101527.44
2022-08-31T05:51:48.500Z,101520.19
2022-08-31T05:54:17.438Z,101530.41
2022-08-31T05:56:44.957Z,101536.66
2022-08-31T05:59:12.810Z,101531.28
2022-08-31T06:01:40.897Z,101533.38
2022-08-31T06:04:13.990Z,101539.69
2022-08-31T06:06:42.346Z,101536.06
2022-08-31T06:09:11.734Z,101536.59
2022-08-31T06:11:42.491Z,101533.97
2022-08-31T06:14:12.575Z,101540.34
2022-08-31T06:16:43.619Z,101559.81
2022-08-31T06:19:11.231Z,101557.97
2022-08-31T06:21:50.011Z,101550.31
2022-08-31T06:24:22.513Z,101556.00
2022-08-31T06:26:57.968Z,101556.66
2022-08-31T06:29:31.258Z,101552.75
2022-08-31T06:32:00.219Z,101555.88
2022-08-31T06:34:29.079Z,101559.97
2022-08-31T06:37:07.638Z,101546.34
2022-08-31T06:39:45.186Z,101549.09
2022-08-31T06:42:30.938Z,101536.13
2022-08-31T06:45:05.080Z,101542.56
2022-08-31T06:47:42.862Z,101545.22
2022-08-31T06:50:12.594Z,101543.59
2022-08-31T06:52:40.192Z,101551.72
2022-08-31T06:55:22.517Z,101549.25
2022-08-31T06:58:07.856Z,101556.44
2022-08-31T07:00:53.906Z,101549.84
2022-08-31T07:03:41.721Z,101550.38
2022-08-31T07:06:10.274Z,101555.09
2022-08-31T07:08:39.403Z,101553.19
2022-08-31T07:11:13.045Z,101557.59
2022-08-31T07:13:40.682Z,101557.53
2022-08-31T07:16:14.148Z,101551.03
2022-08-31T07:18:41.772Z,101564.78
2022-08-31T07:21:18.275Z,101568.56
2022-08-31T07:23:47.258Z,101565.63
2022-08-31T07:26:19.136Z,101575.06
2022-08-31T07:28:52.036Z,101568.97
2022-08-31T07:31:37.542Z,101553.66
2022-08-31T07:34:06.562Z,101570.03
2022-08-31T07:37:02.249Z,101555.72
2022-08-31T07:39:50.243Z,101556.72
2022-08-31T07:42:44.841Z,101565.31
2022-08-31T07:45:23.018Z,101571.88
2022-08-31T07:47:54.972Z,101561.25
2022-08-31T07:50:31.507Z,101575.28
2022-08-31T07:53:20.374Z,101568.66
2022-08-31T07:56:23.726Z,101573.88
2022-08-31T07:58:58.234Z,101568.09
2022-08-31T08:01:26.023Z,101576.19
2022-08-31T08:03:53.786Z,101558.22
2022-08-31T08:06:39.052Z,101550.88
2022-08-31T08:09:23.993Z,101559.72
2022-08-31T08:12:07.311Z,101559.94
2022-08-31T08:15:07.094Z,101542.81
2022-08-31T08:18:05.092Z,101551.44
2022-08-31T08:20:39.225Z,101551.47
2022-08-31T08:23:14.044Z,101554.84
2022-08-31T08:26:21.969Z,101552.72
2022-08-31T08:29:23.898Z,101558.56
2022-08-31T08:31:56.428Z,101555.47
2022-08-31T08:34:32.484Z,101565.25
2022-08-31T08:37:01.615Z,101563.06
2022-08-31T08:39:28.649Z,101568.88
2022-08-31T08:42:04.203Z,101565.44
2022-08-31T08:44:35.789Z,101571.13
2022-08-31T08:47:14.899Z,101567.78
2022-08-31T08:49:55.331Z,101583.34
2022-08-31T08:52:44.726Z,101578.94
2022-08-31T08:55:22.074Z,101571.53
2022-08-31T08:57:49.930Z,101572.72
2022-08-31T09:00:25.173Z,101568.84
2022-08-31T09:03:07.466Z,101573.88
2022-08-31T09:06:20.579Z,101567.31
2022-08-31T09:09:18.413Z,101564.41
2022-08-31T09:12:05.056Z,101555.91
2022-08-31T09:15:09.533Z,101552.75
2022-08-31T09:18:00.399Z,101555.69
2022-08-31T09:20:28.237Z,101551.31
2022-08-31T09:22:57.212Z,101542.34
2022-08-31T09:25:32.715Z,101549.13
2022-08-31T09:28:15.119Z,101556.81
2022-08-31T09:30:45.001Z,101548.78
2022-08-31T09:33:23.778Z,101545.41
2022-08-31T09:35:57.180Z,101545.94
2022-08-31T09:38:40.180Z,101542.94
2022-08-31T09:41:30.496Z,101543.34
2022-08-31T09:44:20.628Z,101545.94
2022-08-31T09:47:01.231Z,101539.47
2022-08-31T09:49:38.906Z,101544.97
2022-08-31T09:52:47.466Z,101535.56
2022-08-31T09:55:19.924Z,101543.50
2022-08-31T09:57:57.924Z,101537.28
2022-08-31T10:00:46.877Z,101547.44
2022-08-31T10:03:28.282Z,101541.09
2022-08-31T10:05:55.577Z,101549.63
2022-08-31T10:08:41.036Z,101541.06
2022-08-31T10:11:19.643Z,101547.91
2022-08-31T10:13:57.103Z,101545.50
2022-08-31T10:16:30.753Z,101539.81
2022-08-31T10:19:03.444Z,101533.34
2022-08-31T10:21:52.262Z,101532.50
2022-08-31T10:24:44.440Z,101528.44
2022-08-31T10:27:29.169Z,101534.84
2022-08-31T10:30:03.298Z,101527.81
2022-08-31T10:32:40.336Z,101536.63
2022-08-31T10:35:19.298Z,101534.34
2022-08-31T10:38:16.768Z,101527.72
2022-08-31T10:40:52.168Z,101528.94
2022-08-31T10:43:22.353Z,101524.03
2022-08-31T10:45:53.579Z,101506.09
2022-08-31T10:48:24.582Z,101522.00
2022-08-31T10:51:05.613Z,101521.09
2022-08-31T10:53:59.951Z,101504.47
2022-08-31T10:56:37.307Z,101517.03
2022-08-31T10:59:28.430Z,101508.00
2022-08-31T11:02:11.249Z,101512.84
2022-08-31T11:04:58.755Z,101514.84
2022-08-31T11:07:39.709Z,101501.16
2022-08-31T11:10:33.932Z,101500.38
2022-08-31T11:13:07.401Z,101502.88
2022-08-31T11:15:51.749Z,101519.03
2022-08-31T11:18:36.417Z,101508.44
2022-08-31T11:21:20.749Z,101498.69
2022-08-31T11:24:11.661Z,101493.88
2022-08-31T11:26:58.322Z,101485.03
2022-08-31T11:29:35.837Z,101488.25
2022-08-31T11:32:20.006Z,101481.09
2022-08-31T11:34:53.541Z,101485.00
2022-08-31T11:37:50.813Z,101494.84
2022-08-31T11:40:41.522Z,101496.50
2022-08-31T11:43:13.961Z,101475.59
2022-08-31T11:45:43.621Z,101472.09
2022-08-31T11:48:51.734Z,101478.50
2022-08-31T11:51:44.921Z,101467.63
2022-08-31T11:54:14.733Z,101469.13
2022-08-31T11:56:44.394Z,101474.81
2022-08-31T11:59:33.989Z,101479.69
2022-08-31T12:02:21.441Z,101467.13
2022-08-31T12:04:51.859Z,101467.34
2022-08-31T12:07:28.253Z,101467.09
2022-08-31T12:10:28.598Z,101465.44
2022-08-31T12:13:19.520Z,101454.13
2022-08-31T12:16:04.154Z,101447.94
2022-08-31T12:18:52.326Z,101445.34
2022-08-31T12:21:43.518Z,101444.38
2022-08-31T12:24:34.337Z,101454.59
2022-08-31T12:27:02.827Z,101444.88
2022-08-31T12:29:36.485Z,101439.06
2022-08-31T12:32:22.098Z,101440.09
2022-08-31T12:35:16.845Z,101437.25
2022-08-31T12:37:44.093Z,101435.94
2022-08-31T12:40:21.000Z,101439.63
2022-08-31T12:42:57.182Z,101424.50
2022-08-31T12:45:56.372Z,101424.97
2022-08-31T12:48:41.654Z,101418.06
2022-08-31T12:51:38.281Z,101418.28
2022-08-31T12:54:16.497Z,101419.38
2022-08-31T12:57:02.914Z,101419.22
2022-08-31T12:59:59.246Z,101419.03
2022-08-31T13:02:23.966Z,101416.47
2022-08-31T13:04:51.534Z,101425.50
2022-08-31T13:07:21.988Z,101411.94
2022-08-31T13:10:04.628Z,101405.78
2022-08-31T13:12:31.177Z,101406.25
2022-08-31T13:14:57.757Z,101412.09
2022-08-31T13:17:24.494Z,101410.03
2022-08-31T13:19:58.603Z,101402.88
2022-08-31T13:22:41.502Z,101405.84
2022-08-31T13:25:38.404Z,101402.09
2022-08-31T13:28:11.785Z,101405.31
2022-08-31T13:30:40.233Z,101411.44
2022-08-31T13:33:25.647Z,101416.06
2022-08-31T13:36:02.429Z,101397.25
2022-08-31T13:38:40.126Z,101395.88
2022-08-31T13:41:17.225Z,101404.78
2022-08-31T13:43:59.180Z,101396.91
2022-08-31T13:46:41.823Z,101393.28
2022-08-31T13:49:24.132Z,101397.34
2022-08-31T13:51:51.259Z,101392.88
2022-08-31T13:54:33.630Z,101387.53
2022-08-31T13:57:20.898Z,101387.47
2022-08-31T13:59:48.389Z,101382.69
2022-08-31T14:02:22.188Z,101386.66
2022-08-31T14:04:59.317Z,101384.84
2022-08-31T14:07:32.019Z,101382.28
2022-08-31T14:10:20.105Z,101386.34
2022-08-31T14:12:59.814Z,101386.84
2022-08-31T14:15:38.729Z,101379.38
2022-08-31T14:18:29.451Z,101387.56
2022-08-31T14:21:20.072Z,101378.97
2022-08-31T14:23:52.079Z,101382.00
2022-08-31T14:26:26.718Z,101382.75
2022-08-31T14:28:57.215Z,101383.59
2022-08-31T14:31:43.016Z,101370.03
2022-08-31T14:34:15.083Z,101369.66
2022-08-31T14:36:53.129Z,101372.34
2022-08-31T14:39:33.345Z,101374.59
2022-08-31T14:42:06.683Z,101361.88
2022-08-31T14:44:38.422Z,101356.81
2022-08-31T14:47:05.511Z,101365.47
2022-08-31T14:49:36.332Z,101355.13
2022-08-31T14:52:06.689Z,101349.00
2022-08-31T14:54:35.769Z,101350.22
2022-08-31T14:57:15.832Z,101358.34
2022-08-31T14:59:44.667Z,101351.13
2022-08-31T15:02:21.057Z,101356.94
2022-08-31T15:04:48.522Z,101353.44
2022-08-31T15:07:16.238Z,101354.84
2022-08-31T15:09:44.790Z,101349.91
2022-08-31T15:12:14.683Z,101344.00
2022-08-31T15:14:43.118Z,101356.13
2022-08-31T15:17:18.943Z,101347.19
2022-08-31T15:19:47.994Z,101346.69
2022-08-31T15:22:15.810Z,101350.31
2022-08-31T15:24:44.689Z,101356.88
2022-08-31T15:27:16.093Z,101361.63
2022-08-31T15:29:45.474Z,101358.44
2022-08-31T15:32:16.406Z,101354.63
2022-08-31T15:34:57.846Z,101343.59
2022-08-31T15:37:30.824Z,101345.50
2022-08-31T15:40:03.537Z,101344.22
2022-08-31T15:42:31.569Z,101339.97
2022-08-31T15:44:58.304Z,101341.63
2022-08-31T15:47:46.806Z,101339.09
2022-08-31T15:50:14.209Z,101348.41
2022-08-31T15:52:50.945Z,101339.88
2022-08-31T15:55:21.909Z,101346.38
2022-08-31T15:57:48.879Z,101347.63
2022-08-31T16:00:15.793Z,101329.28
2022-08-31T16:02:43.374Z,101336.59
2022-08-31T16:05:13.387Z,101325.81
2022-08-31T16:07:40.639Z,101323.31
2022-08-31T16:10:16.716Z,101322.00
2022-08-31T16:12:46.115Z,101324.31
2022-08-31T16:15:15.579Z,101322.72
2022-08-31T16:17:42.943Z,101327.72
2022-08-31T16:20:12.263Z,101325.63
2022-08-31T16:22:39.976Z,101320.84
2022-08-31T16:25:08.453Z,101322.16
2022-08-31T16:27:35.087Z,101319.75
2022-08-31T16:30:01.847Z,101317.97
2022-08-31T16:32:29.937Z,101322.88
2022-08-31T16:34:56.791Z,101319.78
2022-08-31T16:37:23.901Z,101326.81
2022-08-31T16:39:51.385Z,101325.38
2022-08-31T16:42:18.342Z,101320.09
2022-08-31T16:44:46.862Z,101321.06
2022-08-31T16:47:17.316Z,101320.22
2022-08-31T16:49:45.806Z,101315.78
2022-08-31T16:52:21.428Z,101321.44
2022-08-31T16:54:51.614Z,101312.31
2022-08-31T16:57:22.163Z,101315.00
2022-08-31T16:59:51.263Z,101310.44
2022-08-31T17:02:19.166Z,101308.53
2022-08-31T17:04:52.406Z,101309.38
2022-08-31T17:07:21.247Z,101315.72
2022-08-31T17:09:47.965Z,101312.84
2022-08-31T17:12:21.761Z,101317.84
2022-08-31T17:14:52.416Z,101315.22
2022-08-31T17:17:22.395Z,101321.38
2022-08-31T17:19:50.139Z,101314.50
2022-08-31T17:22:24.386Z,101321.06
2022-08-31T17:24:57.506Z,101325.13
2022-08-31T17:27:25.818Z,101316.78
2022-08-31T17:29:56.195Z,101320.94
2022-08-31T17:32:25.686Z,101323.00
2022-08-31T17:34:54.229Z,101322.38
2022-08-31T17:37:27.947Z,101323.56
2022-08-31T17:39:55.524Z,101323.09
2022-08-31T17:42:26.718Z,101324.19
2022-08-31T17:44:54.566Z,101322.28
2022-08-31T17:47:23.335Z,101323.25
2022-08-31T17:49:51.111Z,101329.78
2022-08-31T17:52:20.923Z,101333.69
2022-08-31T17:54:48.429Z,101333.97
2022-08-31T17:57:17.284Z,101344.78
2022-08-31T17:59:46.686Z,101339.69
2022-08-31T18:02:17.874Z,101337.44
2022-08-31T18:04:44.879Z,101333.09
2022-08-31T18:07:12.233Z,101334.94
2022-08-31T18:09:41.599Z,101335.41
2022-08-31T18:12:08.809Z,101342.09
2022-08-31T18:14:38.439Z,101341.00
2022-08-31T18:17:08.597Z,101346.13
2022-08-31T18:19:36.481Z,101336.19
2022-08-31T18:22:04.600Z,101342.78
2022-08-31T18:24:35.519Z,101342.75
2022-08-31T18:27:04.525Z,101346.81
2022-08-31T18:29:33.123Z,101350.03
2022-08-31T18:32:04.129Z,101347.69
2022-08-31T18:34:36.986Z,101359.00
2022-08-31T18:37:04.728Z,101357.63
2022-08-31T18:39:52.553Z,101358.53
2022-08-31T18:42:39.430Z,101363.41
2022-08-31T18:45:18.553Z,101365.47
2022-08-31T18:48:07.131Z,101366.75
2022-08-31T18:50:37.058Z,101374.56
2022-08-31T18:53:08.333Z,101370.19
2022-08-31T18:55:38.817Z,101370.25
2022-08-31T18:58:05.457Z,101370.00
2022-08-31T19:00:33.162Z,101368.94
2022-08-31T19:03:01.307Z,101374.28
2022-08-31T19:05:28.610Z,101376.88
2022-08-31T19:07:55.719Z,101377.63
2022-08-31T19:10:23.288Z,101387.06
2022-08-31T19:12:50.072Z,101385.13
2022-08-31T19:15:16.983Z,101384.56
2022-08-31T19:17:49.154Z,101389.03
2022-08-31T19:20:16.963Z,101382.16
2022-08-31T19:22:43.982Z,101383.34
2022-08-31T19:25:12.807Z,101383.81
2022-08-31T19:27:39.555Z,101374.97
2022-08-31T19:30:08.232Z,101382.25
2022-08-31T19:32:36.951Z,101379.38
2022-08-31T19:35:04.616Z,101378.81
2022-08-31T19:37:31.298Z,101374.44
2022-08-31T19:39:57.915Z,101363.63
2022-08-31T19:42:40.165Z,101372.81
2022-08-31T19:45:24.195Z,101372.41
2022-08-31T19:47:51.588Z,101365.16
2022-08-31T19:50:18.634Z,101368.91
2022-08-31T19:52:45.993Z,101377.25
2022-08-31T19:55:13.521Z,101378.41
2022-08-31T19:57:43.444Z,101377.94
2022-08-31T20:00:12.437Z,101375.50
2022-08-31T20:02:42.231Z,101379.16
2022-08-31T20:05:09.384Z,101381.59
2022-08-31T20:07:36.214Z,101386.22
2022-08-31T20:10:04.103Z,101385.19
2022-08-31T20:12:31.044Z,101387.22
2022-08-31T20:14:58.022Z,101383.66
2022-08-31T20:17:25.331Z,101374.13
2022-08-31T20:19:54.841Z,101385.91
2022-08-31T20:22:23.780Z,101379.63
2022-08-31T20:24:55.638Z,101390.06
2022-08-31T20:27:22.396Z,101389.25
2022-08-31T20:29:49.848Z,101389.38
2022-08-31T20:32:17.490Z,101387.13
2022-08-31T20:34:44.749Z,101389.94
2022-08-31T20:37:12.751Z,101382.53
2022-08-31T20:39:42.342Z,101384.69
2022-08-31T20:42:09.325Z,101388.47
2022-08-31T20:44:37.949Z,101393.72
2022-08-31T20:47:27.151Z,101394.38
2022-08-31T20:49:55.227Z,101397.09
2022-08-31T20:52:25.342Z,101398.72
2022-08-31T20:55:01.693Z,101402.44
2022-08-31T20:57:31.663Z,101401.50
2022-08-31T21:00:00.485Z,101405.28
2022-08-31T21:02:27.178Z,101404.09
2022-08-31T21:04:53.812Z,101415.63
2022-08-31T21:07:23.148Z,101405.06
2022-08-31T21:09:50.420Z,101413.25
2022-08-31T21:12:18.525Z,101411.19
2022-08-31T21:14:45.902Z,101411.03
2022-08-31T21:17:14.396Z,101406.97
2022-08-31T21:19:43.391Z,101404.88
2022-08-31T21:22:12.828Z,101412.94
2022-08-31T21:24:41.865Z,101412.72
2022-08-31T21:27:13.530Z,101414.56
2022-08-31T21:29:41.319Z,101415.66
2022-08-31T21:32:10.539Z,101419.84
2022-08-31T21:34:38.410Z,101414.78
2022-08-31T21:37:07.969Z,101418.84
2022-08-31T21:39:34.532Z,101421.44
2022-08-31T21:42:02.458Z,101419.91
2022-08-31T21:44:29.129Z,101422.38
2022-08-31T21:46:56.134Z,101426.78
2022-08-31T21:49:22.810Z,101415.53
2022-08-31T21:51:52.940Z,101423.88
2022-08-31T21:54:23.190Z,101429.91
2022-08-31T21:56:55.756Z,101431.72
2022-08-31T21:59:25.225Z,101432.47
2022-08-31T22:02:00.348Z,101431.72
2022-08-31T22:04:29.521Z,101435.84
2022-08-31T22:06:56.335Z,101436.47
2022-08-31T22:09:24.093Z,101445.41
2022-08-31T22:11:54.871Z,101433.09
2022-08-31T22:14:28.742Z,101437.00
2022-08-31T22:16:57.783Z,101434.91
2022-08-31T22:19:27.138Z,101435.56
2022-08-31T22:22:01.473Z,101433.63
2022-08-31T22:24:31.255Z,101435.94
2022-08-31T22:27:00.895Z,101436.53
2022-08-31T22:29:31.815Z,101442.41
2022-08-31T22:32:01.333Z,101442.97
2022-08-31T22:34:28.790Z,101445.44
2022-08-31T22:36:56.402Z,101445.34
2022-08-31T22:39:27.432Z,101442.69
2022-08-31T22:41:55.452Z,101444.84
2022-08-31T22:44:25.414Z,101432.31
2022-08-31T22:46:53.220Z,101439.56
2022-08-31T22:49:19.870Z,101439.81
2022-08-31T22:51:49.266Z,101439.06
2022-08-31T22:54:19.173Z,101438.78
2022-08-31T22:56:45.811Z,101432.41
2022-08-31T22:59:16.310Z,101438.97
2022-08-31T23:01:47.872Z,101439.53
2022-08-31T23:04:20.277Z,101446.25
2022-08-31T23:06:49.562Z,101435.31
2022-08-31T23:09:20.845Z,101438.25
2022-08-31T23:11:49.090Z,101437.31
2022-08-31T23:14:15.644Z,101438.63
2022-08-31T23:16:47.414Z,101434.53
2022-08-31T23:19:17.132Z,101430.00
2022-08-31T23:21:52.576Z,101434.38
2022-08-31T23:24:33.349Z,101416.88
2022-08-31T23:27:04.245Z,101428.97
2022-08-31T23:29:34.771Z,101427.13
2022-08-31T23:32:02.744Z,101425.69
2022-08-31T23:34:29.351Z,101427.69
2022-08-31T23:36:57.006Z,101431.63
2022-08-31T23:39:24.361Z,101423.72
2022-08-31T23:41:53.147Z,101420.69
2022-08-31T23:44:21.349Z,101420.50
2022-08-31T23:46:49.420Z,101417.91
2022-08-31T23:49:17.989Z,101425.97
2022-08-31T23:51:44.714Z,101415.22
2022-08-31T23:54:13.861Z,101413.63
2022-08-31T23:56:43.347Z,101415.28
2022-08-31T23:59:18.003Z,101409.69
